Weather reports worldwide

Advertisment
Siguenza, Spain (8150): temperature & dewpoint: 12.01.2018 07:00:00 - 18.01.2018 07:00:00 (CET)Siguenza, Spain (8150): visibility: 12.01.2018 07:00:00 - 18.01.2018 07:00:00 (CET)Siguenza, Spain (8150): sunshine duration: 12.01.2018 07:00:00 - 18.01.2018 07:00:00 (CET)Siguenza, Spain (8150): precipitation: 12.01.2018 07:00:00 - 18.01.2018 07:00:00 (CET)
Date & Time tt [°C] td [°C] vv [km] sd [min] rr [mm]
18.01.2018 07:00:00 - - - - -
18.01.2018 06:00:00 - - - - -
18.01.2018 05:00:00 -2,7 -3,1 20 0 0,0
18.01.2018 04:00:00 -2,7 -3,4 20 0 0,0
18.01.2018 03:00:00 -2,2 -3,0 20 0 0,0
18.01.2018 02:00:00 -1,4 -2,1 20 0 0,0
18.01.2018 01:00:00 -1,8 -2,3 20 0 -
18.01.2018 00:00:00 -1,0 -2,0 20 0 0,0
17.01.2018 23:00:00 -0,1 -1,5 20 0 0,0
17.01.2018 22:00:00 0,4 -1,2 20 0 0,0
17.01.2018 21:00:00 1,7 -0,4 20 0 0,0
17.01.2018 20:00:00 1,9 -0,2 20 0 0,0
17.01.2018 19:00:00 4,0 0,2 20 0 -
17.01.2018 18:00:00 6,8 0,9 20 4 0,0
17.01.2018 17:00:00 9,0 1,2 20 22 0,0
17.01.2018 16:00:00 9,3 1,5 20 49 0,0
17.01.2018 15:00:00 9,8 2,0 20 60 0,0
17.01.2018 14:00:00 9,4 2,3 20 55 0,0
17.01.2018 13:00:00 8,7 3,1 20 47 -
17.01.2018 12:00:00 7,9 3,8 20 20 0,0
17.01.2018 11:00:00 6,8 3,2 20 1 0,0
17.01.2018 10:00:00 6,1 3,3 20 0 0,0
17.01.2018 09:00:00 5,7 3,0 20 0 0,0
17.01.2018 08:00:00 5,7 3,2 20 0 0,0
17.01.2018 07:00:00 5,4 4,5 20 0 -
17.01.2018 06:00:00 2,3 - 20 0 0,0
17.01.2018 05:00:00 -1,6 - 7 0 0,0
17.01.2018 04:00:00 -0,9 - 0,2 0 0,0
17.01.2018 03:00:00 -0,4 - 0,2 0 0,0
17.01.2018 02:00:00 0,0 - 0,2 0 0,0
17.01.2018 01:00:00 -0,4 - 0,3 0 -
17.01.2018 00:00:00 -0,8 -0,8 0,2 0 0,0
16.01.2018 23:00:00 -1,0 -1,3 4,7 0 0,0
16.01.2018 22:00:00 -0,2 -0,6 7 0 0,0
16.01.2018 21:00:00 1,0 0,6 3,9 0 0,0
16.01.2018 20:00:00 1,8 0,9 7 0 0,0
16.01.2018 19:00:00 3,8 1,7 20 0 -
16.01.2018 18:00:00 7,7 3,9 20 2 0,0
16.01.2018 17:00:00 10,7 4,8 20 22 0,0
16.01.2018 16:00:00 11,1 5,4 20 47 0,0
16.01.2018 15:00:00 10,9 5,2 20 59 0,0
16.01.2018 14:00:00 10,5 5,3 20 58 0,0
16.01.2018 13:00:00 8,7 4,5 20 60 -
16.01.2018 12:00:00 6,2 3,0 20 50 0,0
16.01.2018 11:00:00 2,7 1,1 20 0 0,0
16.01.2018 10:00:00 1,1 0,0 20 0 0,0
16.01.2018 09:00:00 0,3 -0,4 15 0 0,0
16.01.2018 08:00:00 -0,1 -0,7 14 0 0,0
16.01.2018 07:00:00 0,2 -0,4 12 0 -
16.01.2018 06:00:00 0,0 -0,3 15 0 0,0
16.01.2018 05:00:00 -0,3 -0,6 7 0 0,0
16.01.2018 04:00:00 -0,6 -0,7 7 0 0,0
16.01.2018 03:00:00 -1,3 -1,6 6 0 0,0
16.01.2018 02:00:00 -0,8 -1,1 6 0 0,0
16.01.2018 01:00:00 -0,3 -0,4 7 0 -
16.01.2018 00:00:00 -1,0 -1,4 4,1 0 0,0
15.01.2018 23:00:00 -0,4 -1,1 7 0 0,0
15.01.2018 22:00:00 1,2 -0,3 12 0 0,0
15.01.2018 21:00:00 1,5 0,0 20 0 0,0
15.01.2018 20:00:00 3,1 0,8 20 0 0,0
15.01.2018 19:00:00 3,9 1,1 20 0 -
15.01.2018 18:00:00 4,6 0,6 20 0 0,0
15.01.2018 17:00:00 5,7 0,3 20 0 0,0
15.01.2018 16:00:00 6,9 0,6 20 19 0,0
15.01.2018 15:00:00 6,4 0,1 20 18 0,0
15.01.2018 14:00:00 6,6 0,1 20 60 0,0
15.01.2018 13:00:00 5,4 0,2 20 60 -
15.01.2018 12:00:00 3,9 -0,3 20 60 0,0
15.01.2018 11:00:00 2,1 -1,0 20 60 0,0
15.01.2018 10:00:00 -1,3 -2,4 20 36 0,0
15.01.2018 09:00:00 -3,5 -4,0 19 0 0,0
15.01.2018 08:00:00 -2,9 -3,4 15 0 0,0
15.01.2018 07:00:00 -2,0 -2,5 14 0 -
15.01.2018 06:00:00 -0,5 -1,5 20 0 0,0
15.01.2018 05:00:00 -0,1 -0,9 20 0 0,0
15.01.2018 04:00:00 -0,7 -1,1 20 0 0,0
15.01.2018 03:00:00 -2,7 -3,1 12 0 0,0
15.01.2018 02:00:00 -2,0 -2,4 14 0 0,0
15.01.2018 01:00:00 -1,3 -2,0 15 0 -
15.01.2018 00:00:00 -1,0 -1,7 17 0 0,0
14.01.2018 23:00:00 0,2 -1,1 20 0 0,0
14.01.2018 22:00:00 0,6 -1,0 20 0 0,0
14.01.2018 21:00:00 0,8 -0,8 20 0 0,0
14.01.2018 20:00:00 1,0 -0,6 20 0 0,0
14.01.2018 19:00:00 1,0 -0,4 20 0 -
14.01.2018 18:00:00 1,9 0,3 20 0 0,0
14.01.2018 17:00:00 2,9 0,3 20 1 0,0
14.01.2018 16:00:00 2,9 0,1 20 14 0,0
14.01.2018 15:00:00 3,0 0,4 20 9 2,0
14.01.2018 14:00:00 1,9 1,2 19 0 1,4
14.01.2018 13:00:00 1,2 1,1 20 0 -
14.01.2018 12:00:00 0,6 - 18 0 0,4
14.01.2018 11:00:00 0,3 - 3,8 0 0,0
14.01.2018 10:00:00 0,1 - 7 0 0,0
14.01.2018 09:00:00 0,0 - 0,6 0 0,0
14.01.2018 08:00:00 0,0 - 0,6 0 0,0
14.01.2018 07:00:00 -0,1 - 2,6 0 -
14.01.2018 06:00:00 0,0 - 0,8 0 0,0
14.01.2018 05:00:00 -0,1 - 0,3 0 0,0
14.01.2018 04:00:00 -0,2 - 0,2 0 0,0
14.01.2018 03:00:00 -0,4 - 0,2 0 0,0
14.01.2018 02:00:00 -0,5 - 0,3 0 0,0
14.01.2018 01:00:00 -0,5 - 0,7 0 -
14.01.2018 00:00:00 -0,3 - 0,5 0 0,0
13.01.2018 23:00:00 -0,1 -0,1 1,7 0 0,0
13.01.2018 22:00:00 0,1 0,1 0,9 0 0,0
13.01.2018 21:00:00 0,3 0,2 2,9 0 0,2
13.01.2018 20:00:00 0,3 0,0 20 0 0,0
13.01.2018 19:00:00 0,3 0,0 2,2 0 -
13.01.2018 18:00:00 0,6 0,2 2,2 0 0,0
13.01.2018 17:00:00 1,2 0,6 3,6 0 0,6
13.01.2018 16:00:00 2,6 1,0 20 0 0,0
13.01.2018 15:00:00 4,2 0,5 20 0 0,0
13.01.2018 14:00:00 4,0 0,4 20 4 0,0
13.01.2018 13:00:00 4,2 -0,2 20 24 -
13.01.2018 12:00:00 4,4 -0,2 20 48 0,0
13.01.2018 11:00:00 1,3 -0,6 20 2 0,0
13.01.2018 10:00:00 0,2 -0,9 20 0 0,0
13.01.2018 09:00:00 -0,1 -1,2 20 0 0,0
13.01.2018 08:00:00 -0,4 -1,7 20 0 0,0
13.01.2018 07:00:00 -1,3 -2,0 20 0 -
13.01.2018 06:00:00 -1,2 -1,8 20 0 0,0
13.01.2018 05:00:00 -0,9 -1,2 20 0 0,0
13.01.2018 04:00:00 -2,6 -2,9 14 0 0,0
13.01.2018 03:00:00 -2,9 -3,2 14 0 0,0
13.01.2018 02:00:00 -3,0 -3,3 18 0 0,0
13.01.2018 01:00:00 -3,0 -3,4 17 0 -
13.01.2018 00:00:00 -2,7 -3,1 20 0 0,0
12.01.2018 23:00:00 -2,3 -2,7 20 0 0,0
12.01.2018 22:00:00 -1,6 -2,3 20 0 0,0
12.01.2018 21:00:00 -0,3 -1,1 20 0 0,0
12.01.2018 20:00:00 0,7 -0,6 20 0 0,0
12.01.2018 19:00:00 1,3 -0,3 20 0 -
12.01.2018 18:00:00 3,2 0,3 20 0 0,0
12.01.2018 17:00:00 5,7 1,6 20 0 0,0
12.01.2018 16:00:00 6,9 0,6 20 26 0,0
12.01.2018 15:00:00 7,1 -0,1 20 60 0,0
12.01.2018 14:00:00 5,9 -0,2 20 59 0,0
12.01.2018 13:00:00 5,9 0,1 20 60 -
12.01.2018 12:00:00 5,3 0,1 20 60 0,0
12.01.2018 11:00:00 4,0 0,0 20 60 0,0
12.01.2018 10:00:00 2,1 -0,5 20 31 0,0
12.01.2018 09:00:00 -3,1 -3,6 20 0 0,0
12.01.2018 08:00:00 -2,4 -2,9 20 0 0,0
12.01.2018 07:00:00 -1,8 -2,8 20 0 -

tt = temperature
td = dewpoint
vv = visibility
sd = sunshine duration
rr = precipitation

Next stations